createdAt,value
2023-10-20T00:00:39.315Z,2.90
2023-10-20T00:03:27.754Z,3.00
2023-10-20T00:05:57.761Z,3.20
2023-10-20T00:08:26.222Z,3.30
2023-10-20T00:10:58.605Z,3.40
2023-10-20T00:13:27.119Z,3.50
2023-10-20T00:15:55.635Z,3.40
2023-10-20T00:18:24.621Z,3.90
2023-10-20T00:20:52.975Z,4.40
2023-10-20T00:23:21.490Z,4.10
2023-10-20T00:25:49.823Z,4.10
2023-10-20T00:28:18.934Z,4.10
2023-10-20T00:30:47.416Z,4.90
2023-10-20T00:33:17.345Z,5.00
2023-10-20T00:35:45.607Z,3.80
2023-10-20T00:38:13.994Z,3.60
2023-10-20T00:40:50.137Z,3.90
2023-10-20T00:43:19.030Z,3.90
2023-10-20T00:45:48.286Z,3.80
2023-10-20T00:48:16.950Z,4.50
2023-10-20T00:50:47.141Z,4.60
2023-10-20T00:53:16.188Z,4.70
2023-10-20T00:55:45.641Z,4.60
2023-10-20T00:58:14.120Z,5.10
2023-10-20T01:00:43.963Z,4.60
2023-10-20T01:03:12.636Z,5.00
2023-10-20T01:05:43.190Z,4.90
2023-10-20T01:08:11.669Z,4.70
2023-10-20T01:10:40.518Z,4.50
2023-10-20T01:13:09.608Z,4.50
2023-10-20T01:15:41.218Z,4.20
2023-10-20T01:18:10.973Z,4.30
2023-10-20T01:20:40.641Z,5.10
2023-10-20T01:23:08.918Z,5.70
2023-10-20T01:25:37.543Z,5.50
2023-10-20T01:28:06.338Z,6.10
2023-10-20T01:30:34.734Z,4.90
2023-10-20T01:33:03.065Z,6.30
2023-10-20T01:35:31.423Z,5.90
2023-10-20T01:37:59.975Z,6.30
2023-10-20T01:40:28.755Z,6.10
2023-10-20T01:42:57.329Z,5.60
2023-10-20T01:45:26.321Z,6.50
2023-10-20T01:47:54.767Z,6.40
2023-10-20T01:50:25.802Z,6.20
2023-10-20T01:52:55.783Z,6.50
2023-10-20T01:55:24.671Z,6.10
2023-10-20T01:57:53.130Z,5.40
2023-10-20T02:00:21.504Z,6.20
2023-10-20T02:02:50.081Z,6.30
2023-10-20T02:05:18.894Z,6.70
2023-10-20T02:07:47.356Z,5.70
2023-10-20T02:10:16.457Z,6.10
2023-10-20T02:12:44.855Z,5.50
2023-10-20T02:15:13.852Z,5.10
2023-10-20T02:17:41.982Z,5.10
2023-10-20T02:20:11.002Z,4.70
2023-10-20T02:22:39.475Z,4.30
2023-10-20T02:25:10.205Z,4.20
2023-10-20T02:27:40.932Z,4.30
2023-10-20T02:30:13.732Z,4.10
2023-10-20T02:32:42.989Z,4.00
2023-10-20T02:35:12.500Z,3.80
2023-10-20T02:37:40.923Z,4.10
2023-10-20T02:40:11.916Z,4.60
2023-10-20T02:42:40.453Z,4.40
2023-10-20T02:45:12.466Z,4.70
2023-10-20T02:47:41.050Z,4.20
2023-10-20T02:50:10.512Z,3.80
2023-10-20T02:52:39.061Z,4.00
2023-10-20T02:55:07.957Z,4.80
2023-10-20T02:57:37.775Z,5.00
2023-10-20T03:00:16.359Z,4.40
2023-10-20T03:02:45.477Z,4.70
2023-10-20T03:05:14.001Z,4.50
2023-10-20T03:07:43.597Z,4.90
2023-10-20T03:10:11.845Z,5.30
2023-10-20T03:12:41.150Z,4.30
2023-10-20T03:15:12.528Z,5.20
2023-10-20T03:17:40.969Z,4.40
2023-10-20T03:20:10.516Z,4.80
2023-10-20T03:22:40.702Z,4.90
2023-10-20T03:25:11.500Z,5.00
2023-10-20T03:27:40.638Z,5.30
2023-10-20T03:30:09.830Z,4.20
2023-10-20T03:32:38.472Z,4.80
2023-10-20T03:35:08.441Z,4.50
2023-10-20T03:37:37.011Z,4.90
2023-10-20T03:40:14.790Z,5.10
2023-10-20T03:42:46.195Z,4.60
2023-10-20T03:45:15.827Z,4.10
2023-10-20T03:47:45.676Z,5.00
2023-10-20T03:50:17.464Z,5.10
2023-10-20T03:52:49.983Z,5.40
2023-10-20T03:55:19.117Z,5.60
2023-10-20T03:57:48.825Z,5.50
2023-10-20T04:00:22.803Z,4.90
2023-10-20T04:02:53.545Z,4.40
2023-10-20T04:05:23.034Z,4.80
2023-10-20T04:07:51.965Z,4.50
2023-10-20T04:10:21.113Z,3.50
2023-10-20T04:12:50.183Z,3.90
2023-10-20T04:15:21.103Z,4.80
2023-10-20T04:17:53.829Z,4.80
2023-10-20T04:20:24.904Z,4.20
2023-10-20T04:22:55.029Z,3.80
2023-10-20T04:25:24.304Z,4.40
2023-10-20T04:27:59.649Z,4.00
2023-10-20T04:30:47.042Z,4.90
2023-10-20T04:33:34.341Z,4.40
2023-10-20T04:36:21.348Z,5.20
2023-10-20T04:39:08.246Z,5.30
2023-10-20T04:41:56.385Z,4.80
2023-10-20T04:44:25.198Z,5.10
2023-10-20T04:47:13.150Z,5.40
2023-10-20T04:50:16.435Z,5.50
2023-10-20T04:52:57.167Z,4.90
2023-10-20T04:55:28.985Z,5.30
2023-10-20T04:58:15.520Z,5.90
2023-10-20T05:00:43.905Z,5.30
2023-10-20T05:03:32.245Z,5.40
2023-10-20T05:06:22.031Z,4.30
2023-10-20T05:08:51.334Z,4.70
2023-10-20T05:11:21.360Z,4.30
2023-10-20T05:13:50.275Z,4.90
2023-10-20T05:16:18.870Z,4.70
2023-10-20T05:18:47.608Z,4.40
2023-10-20T05:21:16.492Z,4.60
2023-10-20T05:23:45.608Z,4.50
2023-10-20T05:26:15.243Z,4.20
2023-10-20T05:28:45.215Z,4.90
2023-10-20T05:31:14.423Z,5.30
2023-10-20T05:33:46.887Z,5.10
2023-10-20T05:36:15.092Z,4.80
2023-10-20T05:38:43.794Z,5.40
2023-10-20T05:41:15.521Z,5.10
2023-10-20T05:43:44.045Z,5.40
2023-10-20T05:46:19.638Z,5.00
2023-10-20T05:51:16.611Z,5.10
2023-10-20T05:53:44.926Z,5.20
2023-10-20T05:56:42.171Z,6.10
2023-10-20T05:59:10.638Z,5.50
2023-10-20T06:01:39.341Z,5.30
2023-10-20T06:04:09.704Z,5.00
2023-10-20T06:06:38.318Z,5.30
2023-10-20T06:09:10.798Z,5.30
2023-10-20T06:11:40.445Z,4.80
2023-10-20T06:14:14.662Z,4.90
2023-10-20T06:16:43.917Z,5.40
2023-10-20T06:19:12.197Z,5.30
2023-10-20T06:21:46.264Z,6.00
2023-10-20T06:24:15.613Z,4.90
2023-10-20T06:26:45.491Z,5.00
2023-10-20T06:29:23.004Z,5.10
2023-10-20T06:32:21.031Z,4.80
2023-10-20T06:34:50.294Z,4.50
2023-10-20T06:37:43.150Z,4.20
2023-10-20T06:40:22.076Z,5.30
2023-10-20T06:42:50.537Z,5.00
2023-10-20T06:45:18.814Z,5.50
2023-10-20T06:47:48.295Z,5.70
2023-10-20T06:50:16.971Z,5.00
2023-10-20T06:52:45.083Z,4.90
2023-10-20T06:57:46.150Z,5.10
2023-10-20T07:00:18.563Z,5.50
2023-10-20T07:02:48.072Z,6.70
2023-10-20T07:05:16.603Z,4.70
2023-10-20T07:07:45.577Z,5.10
2023-10-20T07:10:14.036Z,5.00
2023-10-20T07:12:42.338Z,5.40
2023-10-20T07:15:11.840Z,5.50
2023-10-20T07:17:40.550Z,4.60
2023-10-20T07:20:10.001Z,5.40
2023-10-20T07:22:39.739Z,4.50
2023-10-20T07:25:09.498Z,4.50
2023-10-20T07:27:37.733Z,5.00
2023-10-20T07:30:08.004Z,7.10
2023-10-20T07:32:36.570Z,5.00
2023-10-20T07:37:35.189Z,9.50
2023-10-20T07:40:06.252Z,5.70
2023-10-20T07:42:35.076Z,7.90
2023-10-20T07:47:31.802Z,5.40
2023-10-20T07:50:00.913Z,3.80
2023-10-20T07:52:30.814Z,4.00
2023-10-20T07:54:59.109Z,4.10
2023-10-20T07:57:27.214Z,4.40
2023-10-20T07:59:55.784Z,4.30
2023-10-20T08:02:25.228Z,4.60
2023-10-20T09:20:12.244Z,3.80
2023-10-20T09:22:39.404Z,4.10
2023-10-20T09:25:10.663Z,3.90
2023-10-20T09:27:41.215Z,3.90
2023-10-20T09:30:10.481Z,4.10
2023-10-20T09:32:38.984Z,3.90
2023-10-20T09:35:07.045Z,4.10
2023-10-20T09:37:39.088Z,4.00
2023-10-20T09:40:10.442Z,4.10
2023-10-20T09:42:55.521Z,4.30
2023-10-20T09:45:32.903Z,4.60
2023-10-20T09:48:14.322Z,3.70
2023-10-20T09:50:42.680Z,3.90
2023-10-20T09:53:09.916Z,4.10
2023-10-20T09:55:37.577Z,4.60
2023-10-20T09:58:04.826Z,4.00
2023-10-20T10:00:34.587Z,3.70
2023-10-20T10:03:01.837Z,3.80
2023-10-20T10:05:30.724Z,4.20
2023-10-20T10:08:07.555Z,4.30
2023-10-20T10:10:36.582Z,4.00
2023-10-20T10:13:07.795Z,4.30
2023-10-20T10:15:46.005Z,4.30
2023-10-20T10:18:16.496Z,3.80
2023-10-20T10:20:47.287Z,4.50
2023-10-20T10:23:18.040Z,3.90
2023-10-20T10:25:50.472Z,3.90
2023-10-20T10:28:20.393Z,3.80
2023-10-20T10:30:52.922Z,3.60
2023-10-20T10:33:25.693Z,3.80
2023-10-20T10:36:10.756Z,4.30
2023-10-20T10:38:44.037Z,3.70
2023-10-20T10:41:11.593Z,3.50
2023-10-20T10:43:39.226Z,3.20
2023-10-20T10:46:07.412Z,3.50
2023-10-20T10:48:36.029Z,4.00
2023-10-20T10:51:06.102Z,3.00
2023-10-20T10:53:32.988Z,3.30
2023-10-20T10:56:00.200Z,3.40
2023-10-20T10:58:27.323Z,3.90
2023-10-20T11:00:55.494Z,3.10
2023-10-20T11:03:26.086Z,3.20
2023-10-20T11:05:54.864Z,3.50
2023-10-20T11:08:22.033Z,3.70
2023-10-20T11:10:49.852Z,3.30
2023-10-20T11:13:17.764Z,3.30
2023-10-20T11:15:50.302Z,3.50
2023-10-20T11:20:48.444Z,3.20
2023-10-20T11:23:20.165Z,3.00
2023-10-20T11:25:49.461Z,3.90
2023-10-20T11:28:17.520Z,3.10
2023-10-20T11:30:46.007Z,3.40
2023-10-20T11:33:16.446Z,3.50
2023-10-20T11:35:44.933Z,2.80
2023-10-20T11:38:16.915Z,3.80
2023-10-20T11:40:48.316Z,3.70
2023-10-20T11:43:15.464Z,3.90
2023-10-20T11:45:42.304Z,5.30
2023-10-20T11:48:09.859Z,4.30
2023-10-20T11:50:37.491Z,4.20
2023-10-20T11:53:05.014Z,4.20
2023-10-20T11:55:32.954Z,5.30
2023-10-20T11:58:01.439Z,4.30
2023-10-20T12:00:28.898Z,4.90
2023-10-20T12:02:56.342Z,5.10
2023-10-20T12:05:23.358Z,5.00
2023-10-20T12:07:51.472Z,4.70
2023-10-20T12:10:18.672Z,4.90
2023-10-20T12:12:45.565Z,5.10
2023-10-20T12:15:12.515Z,4.90
2023-10-20T12:17:41.799Z,4.70
2023-10-20T12:20:10.446Z,4.20
2023-10-20T12:22:37.354Z,4.90
2023-10-20T12:25:05.904Z,5.10
2023-10-20T12:27:32.770Z,4.80
2023-10-20T12:29:59.779Z,5.70
2023-10-20T12:32:27.957Z,4.40
2023-10-20T12:34:55.668Z,4.60
2023-10-20T12:37:22.599Z,4.40
2023-10-20T12:39:50.056Z,4.40
2023-10-20T12:42:16.898Z,5.00
2023-10-20T12:44:44.069Z,4.50
2023-10-20T12:47:11.875Z,4.30
2023-10-20T12:49:38.624Z,4.80
2023-10-20T12:52:05.598Z,5.10
2023-10-20T12:54:32.692Z,5.20
2023-10-20T12:57:01.500Z,4.80
2023-10-20T12:59:29.324Z,5.20
2023-10-20T13:01:56.374Z,5.40
2023-10-20T13:04:23.797Z,5.00
2023-10-20T13:07:00.077Z,7.10
2023-10-20T13:09:28.926Z,5.50
2023-10-20T13:11:59.670Z,5.90
2023-10-20T13:14:27.607Z,4.90
2023-10-20T13:16:54.618Z,5.00
2023-10-20T13:19:21.538Z,13.00
2023-10-20T13:21:48.326Z,22.40
2023-10-20T13:24:15.191Z,20.20
2023-10-20T13:26:42.188Z,18.80
2023-10-20T13:29:09.837Z,11.40
2023-10-20T13:31:36.789Z,7.50
2023-10-20T13:34:06.072Z,5.00
2023-10-20T13:36:35.491Z,4.60
2023-10-20T13:39:02.856Z,5.40
2023-10-20T13:41:29.900Z,4.80
2023-10-20T13:43:57.141Z,3.80
2023-10-20T13:46:23.926Z,4.80
2023-10-20T13:48:50.923Z,4.70
2023-10-20T13:51:17.965Z,5.00
2023-10-20T13:53:44.827Z,4.40
2023-10-20T13:56:12.161Z,4.70
2023-10-20T13:58:40.039Z,5.00
2023-10-20T14:01:07.079Z,6.70
2023-10-20T14:03:34.161Z,8.70
2023-10-20T14:06:01.542Z,5.60
2023-10-20T14:08:29.444Z,5.90
2023-10-20T14:11:00.700Z,4.40
2023-10-20T14:13:27.755Z,5.20
2023-10-20T14:15:54.673Z,5.30
2023-10-20T14:18:22.622Z,5.10
2023-10-20T14:20:50.100Z,5.40
2023-10-20T14:23:20.347Z,5.50
2023-10-20T14:25:56.571Z,4.60
2023-10-20T14:28:24.679Z,4.70
2023-10-20T14:30:55.105Z,5.20
2023-10-20T14:33:23.460Z,34.40
2023-10-20T14:35:50.775Z,40.70
2023-10-20T14:38:17.880Z,26.80
2023-10-20T14:40:45.742Z,29.20
2023-10-20T14:43:12.687Z,20.80
2023-10-20T14:45:39.528Z,12.10
2023-10-20T14:48:07.050Z,8.80
2023-10-20T14:50:36.525Z,14.20
2023-10-20T14:53:03.801Z,19.90
2023-10-20T14:55:34.990Z,26.30
2023-10-20T14:58:01.840Z,17.20
2023-10-20T15:00:29.494Z,19.00
2023-10-20T15:02:56.475Z,20.50
2023-10-20T15:05:23.753Z,179.30
2023-10-20T15:07:50.573Z,105.70
2023-10-20T15:10:17.890Z,12.60
2023-10-20T15:12:46.553Z,31.20
2023-10-20T15:15:13.453Z,43.90
2023-10-20T15:17:40.539Z,34.30
2023-10-20T15:20:09.364Z,67.20
2023-10-20T15:22:36.192Z,52.40
2023-10-20T15:25:05.191Z,59.00
2023-10-20T15:27:32.337Z,47.80
2023-10-20T15:29:59.279Z,51.80
2023-10-20T15:32:26.418Z,50.00
2023-10-20T15:34:54.613Z,55.10
2023-10-20T15:37:23.247Z,56.80
2023-10-20T15:39:55.333Z,51.30
2023-10-20T15:42:31.019Z,22.30
2023-10-20T15:44:58.195Z,28.80
2023-10-20T15:47:25.125Z,36.90
2023-10-20T15:49:52.563Z,57.30
2023-10-20T15:52:19.406Z,72.00
2023-10-20T15:54:46.456Z,56.50
2023-10-20T15:57:13.511Z,79.90
2023-10-20T15:59:40.634Z,63.70
2023-10-20T16:02:07.694Z,59.30
2023-10-20T16:04:34.590Z,60.30
2023-10-20T16:07:01.599Z,67.10
2023-10-20T16:09:29.143Z,47.00
2023-10-20T16:11:56.003Z,55.40
2023-10-20T16:14:22.933Z,50.20
2023-10-20T16:16:49.974Z,37.40
2023-10-20T16:19:16.929Z,38.40
2023-10-20T16:21:43.867Z,38.70
2023-10-20T16:24:13.992Z,44.80
2023-10-20T16:26:40.892Z,36.80
2023-10-20T16:29:08.081Z,49.80
2023-10-20T16:31:34.955Z,53.50
2023-10-20T16:34:02.073Z,62.10
2023-10-20T16:36:30.143Z,50.30
2023-10-20T16:38:59.893Z,63.70
2023-10-20T16:41:27.028Z,32.20
2023-10-20T16:43:53.851Z,28.90
2023-10-20T16:46:20.572Z,27.60
2023-10-20T16:48:49.299Z,28.30
2023-10-20T16:51:18.872Z,16.30
2023-10-20T16:56:16.716Z,30.10
2023-10-20T16:58:43.794Z,17.70
2023-10-20T17:01:10.905Z,22.60
2023-10-20T17:03:38.305Z,18.20
2023-10-20T17:06:06.345Z,14.80
2023-10-20T17:08:34.063Z,17.40
2023-10-20T17:11:04.994Z,14.00
2023-10-20T17:13:34.992Z,12.10
2023-10-20T17:16:08.694Z,12.60
2023-10-20T17:18:36.166Z,11.70
2023-10-20T17:21:05.353Z,12.10
2023-10-20T17:23:33.414Z,22.00
2023-10-20T17:26:01.908Z,20.40
2023-10-20T17:28:31.240Z,21.20
2023-10-20T17:31:03.206Z,28.90
2023-10-20T17:33:30.704Z,41.00
2023-10-20T17:36:05.908Z,41.50
2023-10-20T17:38:33.711Z,54.80
2023-10-20T17:41:05.080Z,46.50
2023-10-20T17:43:32.915Z,34.30
2023-10-20T17:46:11.223Z,29.40
2023-10-20T17:48:38.484Z,34.10
2023-10-20T17:51:05.595Z,23.90
2023-10-20T17:53:35.214Z,27.00
2023-10-20T17:56:06.410Z,24.40
2023-10-20T17:58:33.917Z,27.00
2023-10-20T18:01:05.002Z,24.70
2023-10-20T18:03:32.779Z,22.40
2023-10-20T18:06:26.880Z,22.20
2023-10-20T18:08:54.259Z,22.20
2023-10-20T18:11:21.731Z,21.20
2023-10-20T18:13:51.522Z,21.70
2023-10-20T18:16:21.665Z,21.20
2023-10-20T18:18:51.122Z,17.00
2023-10-20T18:21:19.994Z,15.80
2023-10-20T18:23:54.354Z,16.00
2023-10-20T18:26:24.542Z,13.90
2023-10-20T18:28:51.265Z,14.50
2023-10-20T18:31:23.264Z,8.70
2023-10-20T18:33:54.365Z,8.50
2023-10-20T18:36:21.221Z,7.60
2023-10-20T18:38:48.508Z,7.20
2023-10-20T18:41:20.382Z,8.70
2023-10-20T18:43:47.787Z,7.70
2023-10-20T18:46:14.967Z,9.60
2023-10-20T18:48:42.324Z,9.70
2023-10-20T18:51:12.009Z,7.20
2023-10-20T18:53:41.540Z,8.30
2023-10-20T18:56:09.405Z,8.70
2023-10-20T18:58:38.811Z,8.60
2023-10-20T19:01:07.815Z,6.20
2023-10-20T19:03:35.255Z,5.10
2023-10-20T19:06:09.024Z,5.90
2023-10-20T19:08:39.331Z,5.30
2023-10-20T19:11:11.016Z,5.50
2023-10-20T19:13:40.668Z,5.40
2023-10-20T19:16:07.587Z,7.10
2023-10-20T19:18:34.885Z,5.90
2023-10-20T19:21:04.836Z,5.30
2023-10-20T19:23:31.979Z,5.10
2023-10-20T19:26:07.177Z,5.70
2023-10-20T19:28:34.682Z,4.70
2023-10-20T19:31:04.038Z,4.20
2023-10-20T19:33:34.705Z,4.40
2023-10-20T19:36:06.817Z,4.10
2023-10-20T19:38:34.365Z,5.00
2023-10-20T19:41:04.473Z,4.20
2023-10-20T19:43:31.416Z,4.20
2023-10-20T19:46:00.907Z,4.60
2023-10-20T19:48:28.233Z,4.20
2023-10-20T19:50:57.801Z,4.10
2023-10-20T19:55:51.865Z,4.40
2023-10-20T19:58:18.847Z,4.60
2023-10-20T20:00:45.670Z,4.20
2023-10-20T20:03:13.373Z,4.40
2023-10-20T20:05:40.482Z,4.00
2023-10-20T20:08:08.194Z,3.90
2023-10-20T20:10:35.179Z,4.00
2023-10-20T20:13:02.320Z,3.90
2023-10-20T20:15:29.268Z,3.70
2023-10-20T20:17:58.013Z,4.10
2023-10-20T20:20:26.138Z,3.60
2023-10-20T20:22:53.013Z,3.80
2023-10-20T20:25:20.013Z,4.10
2023-10-20T20:27:46.859Z,4.70
2023-10-20T20:30:14.479Z,4.50
2023-10-20T20:32:41.445Z,4.80
2023-10-20T20:35:09.582Z,4.40
2023-10-20T20:37:36.583Z,4.70
2023-10-20T20:40:04.490Z,4.40
2023-10-20T20:42:31.801Z,3.90
2023-10-20T20:44:58.855Z,4.10
2023-10-20T20:47:26.242Z,4.40
2023-10-20T20:49:53.355Z,4.40
2023-10-20T20:52:20.301Z,4.40
2023-10-20T20:54:47.241Z,4.30
2023-10-20T20:57:14.218Z,3.60
2023-10-20T20:59:41.088Z,3.70
2023-10-20T21:02:08.081Z,3.90
2023-10-20T21:04:35.004Z,4.20
2023-10-20T21:07:02.078Z,4.40
2023-10-20T21:09:29.121Z,3.90
2023-10-20T21:11:56.017Z,3.90
2023-10-20T21:14:23.003Z,3.70
2023-10-20T21:16:49.874Z,3.70
2023-10-20T21:19:17.926Z,3.50
2023-10-20T21:21:45.263Z,3.60
2023-10-20T21:24:12.265Z,3.90
2023-10-20T21:26:40.596Z,4.50
2023-10-20T21:29:08.243Z,3.70
2023-10-20T21:31:35.386Z,3.40
2023-10-20T21:34:02.335Z,3.10
2023-10-20T21:36:29.373Z,4.40
2023-10-20T21:38:56.474Z,3.30
2023-10-20T21:41:23.778Z,3.80
2023-10-20T21:43:50.548Z,3.10
2023-10-20T21:46:17.480Z,4.20
2023-10-20T21:48:44.633Z,3.90
2023-10-20T21:51:11.715Z,3.70
2023-10-20T21:53:39.949Z,3.70
2023-10-20T21:56:09.550Z,3.80
2023-10-20T22:01:09.374Z,3.40
2023-10-20T22:03:38.616Z,3.40
2023-10-20T22:06:07.568Z,3.30
2023-10-20T22:08:35.038Z,3.70
2023-10-20T22:11:02.188Z,3.70
2023-10-20T22:13:29.006Z,3.60
2023-10-20T22:15:56.363Z,3.60
2023-10-20T22:18:23.560Z,3.70
2023-10-20T22:20:50.844Z,3.50
2023-10-20T22:23:22.935Z,3.90
2023-10-20T22:25:50.290Z,3.80
2023-10-20T22:28:17.262Z,3.60
2023-10-20T22:30:44.252Z,3.30
2023-10-20T22:33:11.091Z,2.80
2023-10-20T22:35:38.212Z,3.20
2023-10-20T22:38:05.838Z,2.80
2023-10-20T22:40:33.700Z,2.90
2023-10-20T22:43:00.920Z,3.20
2023-10-20T22:45:27.789Z,3.40
2023-10-20T22:47:54.503Z,3.30
2023-10-20T22:50:21.631Z,3.50
2023-10-20T22:52:48.750Z,3.40
2023-10-20T22:55:15.990Z,3.00
2023-10-20T22:57:42.932Z,3.40
2023-10-20T23:00:11.192Z,3.20
2023-10-20T23:02:39.228Z,3.90
2023-10-20T23:05:10.347Z,3.60
2023-10-20T23:07:37.492Z,3.90
2023-10-20T23:10:05.306Z,3.20
2023-10-20T23:12:33.489Z,3.20
2023-10-20T23:15:00.587Z,3.50
2023-10-20T23:17:28.077Z,3.20
2023-10-20T23:19:55.384Z,3.90
2023-10-20T23:22:22.222Z,3.70
2023-10-20T23:24:49.177Z,3.80
2023-10-20T23:27:16.255Z,3.60
2023-10-20T23:29:43.306Z,2.70
2023-10-20T23:32:10.533Z,3.80
2023-10-20T23:34:37.559Z,3.60
2023-10-20T23:37:05.333Z,4.20
2023-10-20T23:39:33.622Z,2.90
2023-10-20T23:42:01.193Z,3.20
2023-10-20T23:44:30.262Z,3.10
2023-10-20T23:46:57.925Z,3.10
2023-10-20T23:49:24.993Z,3.20
2023-10-20T23:51:52.438Z,3.10
2023-10-20T23:54:19.433Z,3.30
2023-10-20T23:56:46.472Z,3.40
2023-10-20T23:59:13.577Z,3.20
